createdAt,value
2023-01-10T00:00:59.729Z,100359.19
2023-01-10T00:04:21.828Z,100342.97
2023-01-10T00:07:43.948Z,100355.75
2023-01-10T00:11:26.966Z,100368.53
2023-01-10T00:14:50.349Z,100361.75
2023-01-10T00:18:13.117Z,100368.56
2023-01-10T00:21:35.095Z,100377.91
2023-01-10T00:24:57.054Z,100375.34
2023-01-10T00:28:20.781Z,100374.53
2023-01-10T00:31:43.859Z,100383.84
2023-01-10T00:35:09.430Z,100383.81
2023-01-10T00:38:32.013Z,100379.56
2023-01-10T00:42:11.646Z,100377.84
2023-01-10T00:45:33.671Z,100370.22
2023-01-10T00:48:58.445Z,100366.81
2023-01-10T00:52:20.288Z,100353.25
2023-01-10T00:55:42.079Z,100343.84
2023-01-10T00:59:03.886Z,100352.38
2023-01-10T01:02:25.877Z,100355.81
2023-01-10T01:05:52.620Z,100362.53
2023-01-10T01:09:15.063Z,100365.06
2023-01-10T01:12:37.266Z,100347.09
2023-01-10T01:16:00.562Z,100359.88
2023-01-10T01:19:22.912Z,100340.25
2023-01-10T01:22:46.148Z,100342.91
2023-01-10T01:26:08.291Z,100311.25
2023-01-10T01:29:42.269Z,100339.50
2023-01-10T01:33:05.275Z,100331.94
2023-01-10T01:36:27.010Z,100325.94
2023-01-10T01:39:50.143Z,100338.78
2023-01-10T01:43:23.550Z,100343.06
2023-01-10T01:46:48.101Z,100338.78
2023-01-10T01:50:16.279Z,100341.34
2023-01-10T01:53:44.836Z,100325.09
2023-01-10T01:57:12.332Z,100325.19
2023-01-10T02:00:35.578Z,100330.31
2023-01-10T02:04:03.152Z,100330.31
2023-01-10T02:07:27.363Z,100323.50
2023-01-10T02:10:54.537Z,100331.19
2023-01-10T02:14:18.799Z,100314.13
2023-01-10T02:17:40.984Z,100322.75
2023-01-10T02:21:16.772Z,100327.81
2023-01-10T02:25:00.882Z,100332.06
2023-01-10T02:28:44.272Z,100324.41
2023-01-10T02:32:40.723Z,100315.03
2023-01-10T02:36:21.543Z,100320.97
2023-01-10T02:39:54.345Z,100318.38
2023-01-10T02:43:19.576Z,100310.72
2023-01-10T02:46:41.935Z,100291.00
2023-01-10T02:50:34.024Z,100298.81
2023-01-10T02:54:02.662Z,100298.00
2023-01-10T02:57:37.558Z,100296.22
2023-01-10T03:01:06.307Z,100309.84
2023-01-10T03:04:39.213Z,100317.53
2023-01-10T03:08:09.260Z,100321.78
2023-01-10T03:11:41.645Z,100314.06
2023-01-10T03:15:06.439Z,100309.00
2023-01-10T03:18:34.341Z,100309.88
2023-01-10T03:22:00.866Z,100303.09
2023-01-10T03:25:28.073Z,100290.34
2023-01-10T03:28:53.651Z,100291.16
2023-01-10T03:32:19.384Z,100290.31
2023-01-10T03:36:04.052Z,100277.53
2023-01-10T03:39:34.214Z,100294.56
2023-01-10T03:43:19.268Z,100273.16
2023-01-10T03:46:48.505Z,100297.94
2023-01-10T03:50:14.708Z,100289.44
2023-01-10T03:53:39.551Z,100297.94
2023-01-10T03:57:02.742Z,100295.41
2023-01-10T04:00:26.301Z,100291.16
2023-01-10T04:03:49.463Z,100281.78
2023-01-10T04:07:11.634Z,100280.13
2023-01-10T04:10:33.341Z,100298.00
2023-01-10T04:13:55.220Z,100297.19
2023-01-10T04:17:18.237Z,100291.16
2023-01-10T04:20:41.515Z,100259.56
2023-01-10T04:24:03.499Z,100277.53
2023-01-10T04:27:25.677Z,100289.50
2023-01-10T04:30:47.738Z,100289.50
2023-01-10T04:34:10.320Z,100282.69
2023-01-10T04:37:33.528Z,100284.44
2023-01-10T04:40:57.149Z,100288.72
2023-01-10T04:44:19.322Z,100282.78
2023-01-10T04:47:41.117Z,100281.97
2023-01-10T04:51:03.325Z,100263.13
2023-01-10T04:54:26.749Z,100282.81
2023-01-10T04:57:48.639Z,100284.44
2023-01-10T05:01:11.684Z,100298.13
2023-01-10T05:04:33.409Z,100304.94
2023-01-10T05:07:55.559Z,100301.53
2023-01-10T05:11:18.788Z,100299.88
2023-01-10T05:14:40.846Z,100293.97
2023-01-10T05:18:02.818Z,100288.84
2023-01-10T05:21:24.425Z,100279.47
2023-01-10T05:24:46.071Z,100276.09
2023-01-10T05:28:09.669Z,100275.25
2023-01-10T05:31:31.502Z,100276.13
2023-01-10T05:34:54.381Z,100286.31
2023-01-10T05:38:16.111Z,100294.00
2023-01-10T05:41:37.945Z,100293.19
2023-01-10T05:45:01.403Z,100290.63
2023-01-10T05:48:23.849Z,100294.91
2023-01-10T05:51:45.943Z,100294.94
2023-01-10T05:55:08.740Z,100292.41
2023-01-10T05:58:31.432Z,100294.13
2023-01-10T06:01:54.773Z,100289.06
2023-01-10T06:05:17.061Z,100296.75
2023-01-10T06:08:39.044Z,100299.31
2023-01-10T06:12:00.956Z,100295.84
2023-01-10T06:15:22.980Z,100308.66
2023-01-10T06:18:46.434Z,100301.88
2023-01-10T06:22:08.487Z,100305.28
2023-01-10T06:25:30.627Z,100302.81
2023-01-10T06:28:52.174Z,100297.72
2023-01-10T06:32:13.838Z,100301.97
2023-01-10T06:35:37.710Z,100310.53
2023-01-10T06:38:59.527Z,100310.56
2023-01-10T06:42:21.313Z,100298.66
2023-01-10T06:45:43.119Z,100304.66
2023-01-10T06:49:05.456Z,100306.34
2023-01-10T06:52:28.849Z,100315.75
2023-01-10T06:55:50.911Z,100319.16
2023-01-10T06:59:12.930Z,100296.94
2023-01-10T07:02:34.879Z,100291.97
2023-01-10T07:05:56.824Z,100310.72
2023-01-10T07:09:20.234Z,100301.41
2023-01-10T07:12:42.480Z,100306.53
2023-01-10T07:16:05.225Z,100307.41
2023-01-10T07:19:27.253Z,100318.50
2023-01-10T07:22:55.977Z,100318.53
2023-01-10T07:26:19.719Z,100321.06
2023-01-10T07:29:41.901Z,100327.03
2023-01-10T07:33:04.099Z,100333.06
2023-01-10T07:36:25.949Z,100333.97
2023-01-10T07:39:49.143Z,100345.88
2023-01-10T07:43:12.572Z,100350.19
2023-01-10T07:46:34.600Z,100364.69
2023-01-10T07:49:56.553Z,100368.09
2023-01-10T07:53:18.348Z,100372.38
2023-01-10T07:56:40.651Z,100382.63
2023-01-10T08:00:04.266Z,100374.94
2023-01-10T08:03:26.242Z,100363.84
2023-01-10T08:06:48.146Z,100380.13
2023-01-10T08:10:11.164Z,100376.75
2023-01-10T08:13:33.944Z,100391.28
2023-01-10T08:16:57.403Z,100364.00
2023-01-10T08:20:19.532Z,100381.09
2023-01-10T08:23:41.285Z,100381.19
2023-01-10T08:27:03.577Z,100380.34
2023-01-10T08:30:25.581Z,100396.59
2023-01-10T08:33:49.076Z,100397.50
2023-01-10T08:37:14.194Z,100384.72
2023-01-10T08:40:36.050Z,100393.31
2023-01-10T08:43:57.779Z,100385.63
2023-01-10T08:47:19.872Z,100389.97
2023-01-10T08:50:43.124Z,100395.09
2023-01-10T08:54:05.695Z,100389.09
2023-01-10T08:57:27.697Z,100400.22
2023-01-10T09:00:49.676Z,100393.44
2023-01-10T09:04:11.675Z,100401.16
2023-01-10T09:07:35.085Z,100395.19
2023-01-10T09:10:59.799Z,100386.69
2023-01-10T09:14:21.806Z,100397.78
2023-01-10T09:17:43.753Z,100389.31
2023-01-10T09:21:05.793Z,100392.72
2023-01-10T09:24:29.406Z,100383.38
2023-01-10T09:27:57.772Z,100383.41
2023-01-10T09:31:19.632Z,100381.69
2023-01-10T09:34:41.422Z,100387.69
2023-01-10T09:38:03.799Z,100383.41
2023-01-10T09:41:49.039Z,100388.53
2023-01-10T09:45:18.587Z,100395.38
2023-01-10T09:48:50.280Z,100397.97
2023-01-10T09:52:23.327Z,100402.22
2023-01-10T09:55:51.287Z,100414.16
2023-01-10T09:59:18.046Z,100406.53
2023-01-10T10:02:45.925Z,100394.56
2023-01-10T10:06:12.470Z,100408.25
2023-01-10T10:09:36.072Z,100406.56
2023-01-10T10:13:13.989Z,100409.13
2023-01-10T10:16:54.661Z,100419.38
2023-01-10T10:20:27.161Z,100406.63
2023-01-10T10:24:09.533Z,100408.34
2023-01-10T10:27:37.798Z,100401.50
2023-01-10T10:31:10.597Z,100410.91
2023-01-10T10:34:40.177Z,100405.81
2023-01-10T10:38:09.604Z,100406.69
2023-01-10T10:41:33.972Z,100408.38
2023-01-10T10:45:05.077Z,100407.53
2023-01-10T10:48:30.902Z,100404.97
2023-01-10T10:51:55.087Z,100419.50
2023-01-10T10:55:19.875Z,100417.81
2023-01-10T10:58:45.046Z,100423.81
2023-01-10T11:02:22.110Z,100420.38
2023-01-10T11:05:47.753Z,100425.53
2023-01-10T11:09:12.677Z,100422.13
2023-01-10T11:12:36.455Z,100419.56
2023-01-10T11:15:58.421Z,100411.03
2023-01-10T11:39:18.785Z,100444.34
2023-01-10T11:42:41.019Z,100444.34
2023-01-10T11:46:05.497Z,100445.19
2023-01-10T11:49:34.287Z,100436.63
2023-01-10T11:52:57.827Z,100428.94
2023-01-10T11:56:28.776Z,100436.63
2023-01-10T11:59:55.334Z,100438.34
2023-01-10T12:03:26.892Z,100444.28
2023-01-10T12:06:53.260Z,100453.69
2023-01-10T12:10:21.545Z,100463.09
2023-01-10T12:13:50.757Z,100462.22
2023-01-10T12:17:21.345Z,100465.63
2023-01-10T12:20:48.090Z,100469.03
2023-01-10T12:24:17.440Z,100480.16
2023-01-10T12:27:39.069Z,100477.56
2023-01-10T12:31:05.543Z,100488.69
2023-01-10T12:34:35.170Z,100494.66
2023-01-10T12:38:04.186Z,100503.22
2023-01-10T12:42:00.458Z,100501.50
2023-01-10T12:45:27.991Z,100496.34
2023-01-10T12:48:57.264Z,100502.34
2023-01-10T12:52:30.792Z,100498.03
2023-01-10T12:55:55.550Z,100497.16
2023-01-10T12:59:36.726Z,100498.84
2023-01-10T13:03:02.432Z,100497.13
2023-01-10T13:06:31.690Z,100512.53
2023-01-10T13:09:54.127Z,100515.94
2023-01-10T13:13:21.887Z,100509.94
2023-01-10T13:16:49.826Z,100516.75
2023-01-10T13:20:29.054Z,100518.50
2023-01-10T13:23:55.506Z,100521.88
2023-01-10T13:27:21.542Z,100525.31
2023-01-10T13:30:43.697Z,100534.72
2023-01-10T13:34:09.239Z,100519.38
2023-01-10T13:37:37.136Z,100540.75
2023-01-10T13:41:04.844Z,100524.47
2023-01-10T13:44:26.804Z,100542.44
2023-01-10T13:48:06.004Z,100546.69
2023-01-10T13:51:29.179Z,100535.53
2023-01-10T13:54:58.035Z,100548.34
2023-01-10T13:59:00.066Z,100550.91
2023-01-10T14:02:31.986Z,100562.91
2023-01-10T14:05:53.728Z,100562.88
2023-01-10T14:09:38.070Z,100563.75
2023-01-10T14:13:09.369Z,100548.41
2023-01-10T14:16:37.242Z,100578.28
2023-01-10T14:20:04.140Z,100573.16
2023-01-10T14:23:31.411Z,100571.38
2023-01-10T14:26:57.192Z,100578.25
2023-01-10T14:30:22.337Z,100579.06
2023-01-10T14:33:46.442Z,100584.19
2023-01-10T14:37:16.865Z,100569.63
2023-01-10T14:40:43.577Z,100574.75
2023-01-10T14:44:12.113Z,100584.16
2023-01-10T14:47:38.496Z,100576.47
2023-01-10T14:51:22.268Z,100577.34
2023-01-10T14:54:44.177Z,100591.84
2023-01-10T14:58:06.001Z,100564.50
2023-01-10T15:01:31.213Z,100595.28
2023-01-10T15:04:56.607Z,100597.81
2023-01-10T15:08:23.466Z,100596.94
2023-01-10T15:11:47.037Z,100591.78
2023-01-10T15:15:15.684Z,100597.81
2023-01-10T15:18:40.682Z,100596.94
2023-01-10T15:22:04.995Z,100602.09
2023-01-10T15:25:33.585Z,100602.06
2023-01-10T15:29:10.632Z,100597.78
2023-01-10T15:32:37.113Z,100603.75
2023-01-10T15:36:05.137Z,100606.34
2023-01-10T15:39:30.810Z,100587.56
2023-01-10T15:43:12.074Z,100617.47
2023-01-10T15:46:35.648Z,100614.03
2023-01-10T15:49:58.349Z,100613.16
2023-01-10T15:53:20.667Z,100614.91
2023-01-10T15:56:49.078Z,100628.59
2023-01-10T16:00:19.146Z,100633.75
2023-01-10T16:03:46.416Z,100635.44
2023-01-10T16:07:13.057Z,100650.88
2023-01-10T16:10:37.189Z,100645.72
2023-01-10T16:13:58.194Z,100656.00
2023-01-10T16:17:21.613Z,100660.28
2023-01-10T16:20:46.153Z,100655.13
2023-01-10T16:24:10.901Z,100662.00
2023-01-10T16:27:33.015Z,100666.25
2023-01-10T16:30:54.651Z,100667.13
2023-01-10T16:34:18.172Z,100674.81
2023-01-10T16:37:40.180Z,100667.13
2023-01-10T16:41:23.310Z,100664.53
2023-01-10T16:44:45.591Z,100667.09
2023-01-10T16:48:07.975Z,100679.09
2023-01-10T16:51:32.861Z,100667.94
2023-01-10T16:54:54.862Z,100672.22
2023-01-10T16:58:18.307Z,100678.19
2023-01-10T17:01:43.658Z,100681.63
2023-01-10T17:05:06.345Z,100689.38
2023-01-10T17:08:29.651Z,100693.63
2023-01-10T17:11:59.080Z,100693.63
2023-01-10T17:15:21.814Z,100681.63
2023-01-10T17:18:43.775Z,100685.03
2023-01-10T17:22:05.746Z,100688.47
2023-01-10T17:25:29.102Z,100692.75
2023-01-10T17:28:51.245Z,100691.91
2023-01-10T17:32:13.251Z,100703.06
2023-01-10T17:35:35.157Z,100707.31
2023-01-10T17:38:57.732Z,100703.06
2023-01-10T17:42:22.804Z,100704.72
2023-01-10T17:45:46.690Z,100697.91
2023-01-10T17:49:08.310Z,100703.84
2023-01-10T17:52:30.081Z,100717.59
2023-01-10T17:55:52.629Z,100714.16
2023-01-10T17:59:15.981Z,100712.44
2023-01-10T18:02:38.302Z,100707.25
2023-01-10T18:06:00.422Z,100713.28
2023-01-10T18:09:22.125Z,100715.00
2023-01-10T18:12:44.143Z,100721.84
2023-01-10T18:16:08.025Z,100715.84
2023-01-10T18:19:31.033Z,100723.56
2023-01-10T18:23:10.393Z,100722.72
2023-01-10T18:26:32.273Z,100717.53
2023-01-10T18:29:54.928Z,100715.81
2023-01-10T18:33:18.425Z,100719.25
2023-01-10T18:36:42.839Z,100698.72
2023-01-10T18:40:05.775Z,100726.13
2023-01-10T18:43:29.354Z,100725.28
2023-01-10T18:46:51.130Z,100731.28
2023-01-10T18:50:14.396Z,100733.88
2023-01-10T18:53:36.373Z,100732.13
2023-01-10T18:56:58.549Z,100734.72
2023-01-10T19:00:21.091Z,100749.28
2023-01-10T19:03:43.893Z,100742.50
2023-01-10T19:07:07.324Z,100748.44
2023-01-10T19:10:34.748Z,100744.16
2023-01-10T19:14:07.032Z,100751.03
2023-01-10T19:17:30.610Z,100745.88
2023-01-10T19:20:53.373Z,100749.28
2023-01-10T19:24:22.889Z,100748.44
2023-01-10T19:27:44.998Z,100739.88
2023-01-10T19:31:07.531Z,100742.44
2023-01-10T19:34:29.198Z,100745.88
2023-01-10T19:37:50.788Z,100751.91
2023-01-10T19:41:15.057Z,100748.47
2023-01-10T19:44:36.962Z,100748.44
2023-01-10T19:47:58.846Z,100747.59
2023-01-10T19:51:20.534Z,100748.44
2023-01-10T19:54:42.664Z,100751.88
2023-01-10T19:58:06.139Z,100743.31
2023-01-10T20:01:31.267Z,100758.75
2023-01-10T20:04:53.208Z,100764.75
2023-01-10T20:08:15.204Z,100763.91
2023-01-10T20:11:43.098Z,100764.75
2023-01-10T20:15:07.755Z,100764.75
2023-01-10T20:18:29.653Z,100755.31
2023-01-10T20:21:51.501Z,100753.63
2023-01-10T20:25:13.229Z,100773.31
2023-01-10T20:28:35.427Z,100757.06
2023-01-10T20:32:01.152Z,100766.47
2023-01-10T20:35:23.178Z,100778.47
2023-01-10T20:38:45.955Z,100783.63
2023-01-10T20:42:07.792Z,100785.34
2023-01-10T20:45:29.667Z,100780.22
2023-01-10T20:48:55.017Z,100772.44
2023-01-10T20:52:16.973Z,100755.41
2023-01-10T20:55:39.482Z,100776.78
2023-01-10T20:59:02.142Z,100775.91
2023-01-10T21:02:24.174Z,100781.06
2023-01-10T21:05:51.759Z,100778.47
2023-01-10T21:09:16.750Z,100787.06
2023-01-10T21:12:38.769Z,100776.75
2023-01-10T21:16:00.768Z,100777.59
2023-01-10T21:19:22.486Z,100783.63
2023-01-10T21:22:46.886Z,100784.50
2023-01-10T21:26:10.612Z,100784.50
2023-01-10T21:29:32.662Z,100791.38
2023-01-10T21:32:54.233Z,100769.09
2023-01-10T21:36:16.135Z,100802.50
2023-01-10T21:39:39.551Z,100799.06
2023-01-10T21:43:02.816Z,100799.06
2023-01-10T21:46:24.740Z,100804.25
2023-01-10T21:49:46.792Z,100811.09
2023-01-10T21:53:08.651Z,100787.94
2023-01-10T21:56:31.939Z,100807.63
2023-01-10T21:59:54.905Z,100812.78
2023-01-10T22:03:16.872Z,100811.94
2023-01-10T22:06:38.980Z,100814.53
2023-01-10T22:10:01.006Z,100816.22
2023-01-10T22:13:26.340Z,100818.81
2023-01-10T22:16:48.189Z,100836.88
2023-01-10T22:20:11.213Z,100824.00
2023-01-10T22:23:33.130Z,100840.28
2023-01-10T22:26:55.893Z,100840.28
2023-01-10T22:30:19.649Z,100840.31
2023-01-10T22:33:42.872Z,100844.56
2023-01-10T22:37:05.166Z,100851.47
2023-01-10T22:40:26.950Z,100842.00
2023-01-10T22:43:49.445Z,100845.44
2023-01-10T22:47:12.305Z,100848.88
2023-01-10T22:50:34.354Z,100848.88
2023-01-10T22:53:59.258Z,100864.34
2023-01-10T22:57:21.139Z,100863.50
2023-01-10T23:00:43.078Z,100860.06
2023-01-10T23:04:06.389Z,100863.50
2023-01-10T23:07:28.476Z,100873.81
2023-01-10T23:10:50.465Z,100878.13
2023-01-10T23:14:12.048Z,100884.97
2023-01-10T23:17:34.126Z,100888.41
2023-01-10T23:20:57.610Z,100879.78
2023-01-10T23:24:19.979Z,100875.50
2023-01-10T23:27:41.855Z,100882.38
2023-01-10T23:31:04.455Z,100876.41
2023-01-10T23:34:26.567Z,100890.09
2023-01-10T23:37:49.719Z,100888.38
2023-01-10T23:41:12.400Z,100884.09
2023-01-10T23:44:34.825Z,100874.66
2023-01-10T23:47:56.566Z,100878.97
2023-01-10T23:51:18.472Z,100856.69
2023-01-10T23:54:41.684Z,100890.97
2023-01-10T23:58:03.937Z,100891.84
